Time;durP1;ratioP1;P1;durP2;ratioP2;P2;SDS_P1;SDS_P2;PMS_P1;PMS_P2;Temp;Humidity;BMP_temperature;BMP_pressure;BME280_temperature;BME280_humidity;BME280_pressure;Samples;Min_cycle;Max_cycle;Signal;HPM_P1;HPM_P2
2023/02/01 00:01:32;;;;;;;12.40;2.80;;;;;;;5.65;100.00;101809.81;2616742;36;20030;-50
2023/02/01 00:04:00;;;;;;;16.63;3.10;;;;;;;5.74;100.00;101821.81;2616215;36;20299;-52
2023/02/01 00:06:29;;;;;;;18.02;2.90;;;;;;;5.61;100.00;101821.63;2617015;36;20439;-54
2023/02/01 00:08:58;;;;;;;14.60;3.22;;;;;;;5.66;100.00;101816.91;2616192;36;20038;-52
2023/02/01 00:11:31;;;;;;;15.55;2.65;;;;;;;5.69;100.00;101814.06;2616390;36;20042;-52
2023/02/01 00:14:00;;;;;;;16.73;3.70;;;;;;;5.66;100.00;101824.06;2616610;36;20597;-57
2023/02/01 00:16:30;;;;;;;13.90;2.50;;;;;;;5.65;100.00;101812.50;2616278;36;20034;-54
2023/02/01 00:19:01;;;;;;;14.20;2.75;;;;;;;5.59;100.00;101821.72;2616122;36;20045;-55
2023/02/01 00:21:30;;;;;;;13.02;2.38;;;;;;;5.61;100.00;101818.97;2616328;36;20042;-56
2023/02/01 00:23:59;;;;;;;11.35;2.92;;;;;;;5.61;100.00;101821.63;2615902;36;20041;-52
2023/02/01 00:26:34;;;;;;;20.70;2.80;;;;;;;5.74;100.00;101821.81;2615240;31;20034;-55
2023/02/01 00:29:03;;;;;;;13.95;3.17;;;;;;;5.72;100.00;101807.69;2616843;36;20463;-55
2023/02/01 00:31:31;;;;;;;15.35;2.97;;;;;;;5.72;100.00;101813.91;2616360;36;20581;-56
2023/02/01 00:34:00;;;;;;;11.13;2.30;;;;;;;5.70;100.00;101812.28;2615684;36;20026;-52
2023/02/01 00:36:29;;;;;;;22.60;3.00;;;;;;;5.67;100.00;101815.06;2616432;36;20531;-53
2023/02/01 00:38:57;;;;;;;18.00;2.53;;;;;;;5.57;100.00;101807.56;2614636;31;20463;-52
2023/02/01 00:41:26;;;;;;;15.98;3.05;;;;;;;5.56;100.00;101808.50;2613857;36;20645;-53
2023/02/01 00:43:57;;;;;;;27.20;3.17;;;;;;;5.52;100.00;101814.97;2613731;36;20038;-52
2023/02/01 00:46:25;;;;;;;15.38;3.90;;;;;;;5.48;100.00;101816.06;2614408;36;20027;-56
2023/02/01 00:48:54;;;;;;;13.88;3.05;;;;;;;5.54;100.00;101810.38;2613085;36;20053;-54
2023/02/01 00:51:25;;;;;;;13.00;2.90;;;;;;;5.65;100.00;101807.16;2615411;36;20041;-53
2023/02/01 00:53:53;;;;;;;17.98;3.38;;;;;;;5.66;100.00;101810.69;2615272;36;20302;-49
2023/02/01 00:56:22;;;;;;;21.37;3.87;;;;;;;5.70;100.00;101809.59;2614317;36;20034;-53
2023/02/01 00:58:50;;;;;;;18.42;2.65;;;;;;;5.82;100.00;101798.25;2614990;36;20280;-54
2023/02/01 01:01:23;;;;;;;15.57;3.00;;;;;;;5.93;100.00;101803.00;2614871;31;20034;-57
2023/02/01 01:03:55;;;;;;;15.82;2.63;;;;;;;5.96;100.00;101795.72;2614171;36;20935;-54
2023/02/01 01:06:25;;;;;;;21.38;2.83;;;;;;;6.07;100.00;101796.97;2614387;36;20181;-53
2023/02/01 01:08:54;;;;;;;13.95;2.90;;;;;;;6.06;100.00;101788.06;2614270;36;20027;-55
2023/02/01 01:11:25;;;;;;;16.48;2.97;;;;;;;6.02;100.00;101772.28;2613842;36;20054;-54
2023/02/01 01:13:55;;;;;;;17.60;2.72;;;;;;;6.12;100.00;101773.50;2615943;36;20618;-52
2023/02/01 01:16:28;;;;;;;13.93;2.72;;;;;;;6.13;100.00;101775.25;2613331;36;20042;-55
2023/02/01 01:18:57;;;;;;;21.30;3.72;;;;;;;6.24;100.00;101777.31;2614056;31;20041;-55
2023/02/01 01:21:26;;;;;;;15.88;3.38;;;;;;;6.19;100.00;101771.38;2614033;36;20022;-55
2023/02/01 01:23:55;;;;;;;21.73;3.15;;;;;;;6.21;100.00;101766.78;2614838;36;20107;-58
2023/02/01 01:26:25;;;;;;;9.05;2.25;;;;;;;6.22;100.00;101773.88;2614036;36;20522;-54
2023/02/01 01:28:54;;;;;;;16.08;2.42;;;;;;;6.23;100.00;101776.44;2613376;36;20430;-56
2023/02/01 01:31:25;;;;;;;17.85;2.72;;;;;;;6.27;100.00;101772.66;2615606;31;20039;-55
2023/02/01 01:33:56;;;;;;;10.40;2.17;;;;;;;6.28;100.00;101773.53;2614582;36;20038;-52
2023/02/01 01:36:25;;;;;;;16.63;3.05;;;;;;;6.23;100.00;101780.94;2613816;31;20038;-56
2023/02/01 01:38:54;;;;;;;16.63;2.72;;;;;;;6.22;100.00;101774.72;2613973;36;20034;-58
2023/02/01 01:41:24;;;;;;;11.77;2.30;;;;;;;6.22;100.00;101777.41;2615137;36;20669;-51
2023/02/01 01:43:58;;;;;;;13.57;2.22;;;;;;;6.29;100.00;101770.75;2615194;36;20038;-56
2023/02/01 01:46:31;;;;;;;21.67;2.80;;;;;;;6.32;100.00;101775.94;2614314;36;20558;-52
2023/02/01 01:49:05;;;;;;;19.63;3.40;;;;;;;6.45;100.00;101775.25;2614246;36;20042;-57
2023/02/01 01:51:37;;;;;;;17.55;3.80;;;;;;;6.39;100.00;101775.56;2613016;36;20037;-58
2023/02/01 01:54:13;;;;;;;19.13;3.22;;;;;;;6.46;100.00;101768.94;2614354;31;20026;-56
2023/02/01 01:56:43;;;;;;;12.02;2.67;;;;;;;6.49;100.00;101771.44;2613875;36;20045;-53
2023/02/01 01:59:12;;;;;;;17.30;2.92;;;;;;;6.51;100.00;101756.19;2615017;31;20038;-55
2023/02/01 02:01:43;;;;;;;19.48;3.00;;;;;;;6.49;100.00;101758.06;2614443;36;20027;-56
2023/02/01 02:04:11;;;;;;;12.48;2.55;;;;;;;6.47;100.00;101754.63;2614925;36;20034;-56
2023/02/01 02:06:47;;;;;;;16.95;3.80;;;;;;;6.53;100.00;101751.59;2612903;36;20065;-54
2023/02/01 02:09:16;;;;;;;17.85;2.80;;;;;;;6.56;100.00;101751.41;2614252;36;20026;-53
2023/02/01 02:11:45;;;;;;;12.48;2.47;;;;;;;6.63;100.00;101747.44;2613654;36;20034;-55
2023/02/01 02:14:17;;;;;;;17.88;3.63;;;;;;;6.75;100.00;101728.97;2613806;36;20427;-56
2023/02/01 02:17:09;;;;;;;13.27;2.78;;;;;;;6.80;100.00;101732.22;2613867;36;20061;-53
2023/02/01 02:20:09;;;;;;;18.95;3.97;;;;;;;6.63;100.00;101720.69;2614710;36;20042;-55
2023/02/01 02:23:13;;;;;;;14.45;3.92;;;;;;;6.64;100.00;101730.44;2614362;36;20515;-55
2023/02/01 02:26:21;;;;;;;14.95;3.13;;;;;;;6.66;100.00;101725.88;2613946;36;20038;-51
2023/02/01 02:29:23;;;;;;;12.93;2.47;;;;;;;6.69;100.00;101723.97;2615317;36;20478;-55
2023/02/01 02:32:13;;;;;;;16.65;3.50;;;;;;;6.77;100.00;101713.66;2614643;36;20050;-57
2023/02/01 02:34:49;;;;;;;14.70;2.90;;;;;;;6.76;100.00;101711.97;2613943;36;20038;-53
2023/02/01 02:37:25;;;;;;;19.77;3.58;;;;;;;6.72;100.00;101707.75;2612906;36;21437;-55
2023/02/01 02:40:02;;;;;;;11.93;2.80;;;;;;;6.69;100.00;101714.13;2615348;36;20106;-55
2023/02/01 02:48:12;;;;;;;13.10;2.75;;;;;;;6.81;100.00;101697.34;2614975;36;19954;-58
2023/02/01 03:04:25;;;;;;;15.45;2.63;;;;;;;6.68;100.00;101687.47;2613971;36;20030;-58
2023/02/01 03:06:56;;;;;;;17.27;3.88;;;;;;;6.61;100.00;101695.84;2613489;36;20393;-53
2023/02/01 03:09:29;;;;;;;16.58;2.92;;;;;;;6.62;100.00;101694.88;2613320;36;20046;-57
2023/02/01 03:14:50;;;;;;;21.83;3.85;;;;;;;6.62;100.00;101688.69;2612687;36;20043;-56
2023/02/01 03:17:24;;;;;;;19.23;3.38;;;;;;;6.66;100.00;101692.91;2613532;36;20033;-55
2023/02/01 03:19:55;;;;;;;16.85;3.05;;;;;;;6.70;100.00;101690.91;2613991;36;20041;-56
2023/02/01 03:22:31;;;;;;;13.52;2.55;;;;;;;6.72;100.00;101686.34;2613945;36;20057;-53
2023/02/01 03:25:05;;;;;;;14.20;2.75;;;;;;;6.62;100.00;101680.66;2613696;36;20050;-58
2023/02/01 03:27:36;;;;;;;16.98;3.42;;;;;;;6.62;100.00;101691.34;2613137;36;20041;-54
2023/02/01 03:30:17;;;;;;;15.10;3.40;;;;;;;6.63;100.00;101687.75;2613567;36;20522;-51
2023/02/01 03:33:01;;;;;;;12.23;2.42;;;;;;;6.62;100.00;101686.84;2613335;36;20057;-56
2023/02/01 03:35:33;;;;;;;16.67;2.72;;;;;;;6.49;100.00;101691.19;2612671;36;20039;-58
2023/02/01 03:38:15;;;;;;;14.57;2.40;;;;;;;6.50;100.00;101687.59;2611488;31;20443;-53
2023/02/01 03:40:46;;;;;;;17.85;2.70;;;;;;;6.44;100.00;101682.59;2613699;36;20039;-56
2023/02/01 03:43:21;;;;;;;18.95;3.40;;;;;;;6.36;100.00;101676.81;2614279;36;20026;-56
2023/02/01 03:45:54;;;;;;;12.85;3.22;;;;;;;6.35;100.00;101680.47;2614154;36;20035;-58
2023/02/01 03:48:26;;;;;;;19.73;3.05;;;;;;;6.35;100.00;101688.50;2609709;36;20049;-58
2023/02/01 03:50:59;;;;;;;15.10;2.53;;;;;;;6.46;100.00;101696.72;2614554;36;20038;-53
2023/02/01 03:53:31;;;;;;;27.10;4.03;;;;;;;6.44;100.00;101685.28;2612759;36;20705;-53
2023/02/01 03:56:00;;;;;;;21.13;3.20;;;;;;;6.49;100.00;101685.84;2613999;36;20027;-56
2023/02/01 03:58:28;;;;;;;15.43;2.72;;;;;;;6.51;100.00;101681.31;2615271;36;20423;-55
2023/02/01 04:00:59;;;;;;;21.85;3.38;;;;;;;6.51;100.00;101686.66;2615614;36;20027;-53
2023/02/01 04:03:29;;;;;;;10.95;2.72;;;;;;;6.58;100.00;101696.03;2614135;36;20050;-56
2023/02/01 04:05:58;;;;;;;15.15;3.05;;;;;;;6.60;100.00;101707.50;2614305;36;20038;-53
2023/02/01 04:08:26;;;;;;;16.67;2.72;;;;;;;6.66;100.00;101693.75;2615551;36;20039;-50
2023/02/01 04:10:57;;;;;;;9.13;2.72;;;;;;;6.69;100.00;101694.56;2614500;36;20038;-54
2023/02/01 04:13:25;;;;;;;18.20;3.10;;;;;;;6.70;100.00;101683.75;2615517;36;20030;-53
2023/02/01 04:15:54;;;;;;;15.43;2.83;;;;;;;6.77;100.00;101697.63;2615044;36;20042;-53
2023/02/01 04:18:22;;;;;;;19.80;3.53;;;;;;;6.79;100.00;101693.06;2615359;36;20038;-54
2023/02/01 04:20:51;;;;;;;12.77;2.60;;;;;;;6.78;100.00;101691.31;2613510;36;20031;-54
2023/02/01 04:23:20;;;;;;;19.23;2.75;;;;;;;6.74;100.00;101684.41;2615277;36;20046;-54
2023/02/01 04:25:51;;;;;;;11.52;2.92;;;;;;;6.74;100.00;101695.13;2615164;36;20046;-53
2023/02/01 04:28:22;;;;;;;17.33;3.40;;;;;;;6.60;100.00;101696.81;2613940;36;20085;-57
2023/02/01 04:30:51;;;;;;;15.45;3.22;;;;;;;6.70;100.00;101693.56;2614889;36;20535;-53
2023/02/01 04:33:19;;;;;;;13.35;2.65;;;;;;;6.76;100.00;101709.28;2614554;36;20045;-56
2023/02/01 04:35:47;;;;;;;12.27;2.47;;;;;;;6.83;100.00;101698.13;2613226;36;20038;-53
2023/02/01 04:38:16;;;;;;;19.63;3.47;;;;;;;6.99;100.00;101699.88;2613924;36;20413;-59
2023/02/01 04:40:45;;;;;;;13.05;3.03;;;;;;;6.90;100.00;101689.72;2614568;36;20034;-55
2023/02/01 04:43:13;;;;;;;15.47;3.13;;;;;;;7.01;100.00;101697.97;2615096;36;20026;-50
2023/02/01 04:45:44;;;;;;;15.18;2.90;;;;;;;6.99;100.00;101690.06;2612406;36;20035;-59
2023/02/01 04:48:12;;;;;;;14.75;2.58;;;;;;;6.89;100.00;101688.88;2614178;36;20550;-53
2023/02/01 04:50:40;;;;;;;14.40;2.50;;;;;;;6.93;100.00;101694.91;2614137;36;20045;-54
2023/02/01 04:53:09;;;;;;;10.65;2.17;;;;;;;6.89;100.00;101699.59;2613962;36;20035;-55
2023/02/01 04:55:37;;;;;;;12.80;2.90;;;;;;;6.96;100.00;101690.25;2613944;36;20030;-54
2023/02/01 04:58:05;;;;;;;16.08;2.63;;;;;;;6.97;100.00;101691.94;2613818;36;20038;-54
2023/02/01 05:00:34;;;;;;;16.80;2.88;;;;;;;7.01;100.00;101703.34;2614453;36;20034;-53
2023/02/01 05:03:05;;;;;;;14.80;2.53;;;;;;;6.98;100.00;101671.41;2613607;36;20688;-53
2023/02/01 05:05:34;;;;;;;25.13;3.50;;;;;;;7.00;100.00;101666.81;2614621;31;20035;-54
2023/02/01 05:08:02;;;;;;;11.50;2.33;;;;;;;6.96;100.00;101674.19;2613580;36;20034;-50
2023/02/01 05:10:31;;;;;;;15.77;2.47;;;;;;;6.92;100.00;101677.97;2613043;36;20038;-52
2023/02/01 05:15:40;;;;;;;13.73;3.10;;;;;;;6.92;100.00;101666.41;2615536;31;20299;-56
2023/02/01 05:18:11;;;;;;;11.23;3.33;;;;;;;6.96;100.00;101674.19;2614736;36;20034;-53
2023/02/01 05:20:39;;;;;;;14.02;2.47;;;;;;;7.03;100.00;101671.97;2614768;31;20038;-54
2023/02/01 05:23:07;;;;;;;16.38;2.88;;;;;;;6.94;100.00;101677.88;2616107;36;20065;-54
2023/02/01 05:25:36;;;;;;;13.88;2.53;;;;;;;6.87;100.00;101666.69;2614200;36;20122;-54
2023/02/01 05:28:04;;;;;;;20.42;3.13;;;;;;;6.92;100.00;101672.63;2615012;36;20493;-53
2023/02/01 05:30:34;;;;;;;17.08;3.85;;;;;;;6.87;100.00;101681.88;2616033;36;20045;-52
2023/02/01 05:33:03;;;;;;;15.10;2.83;;;;;;;6.88;100.00;101673.75;2612971;36;20049;-53
2023/02/01 05:35:34;;;;;;;16.33;3.17;;;;;;;6.89;100.00;101674.63;2614966;36;20042;-57
2023/02/01 05:38:02;;;;;;;18.52;3.25;;;;;;;6.89;100.00;101680.84;2613518;31;20038;-53
2023/02/01 05:40:30;;;;;;;10.35;2.95;;;;;;;6.92;100.00;101683.34;2613192;36;20039;-54
2023/02/01 05:42:59;;;;;;;14.05;2.58;;;;;;;6.86;100.00;101689.06;2613742;31;20057;-55
2023/02/01 05:45:27;;;;;;;16.25;3.47;;;;;;;6.89;100.00;101688.88;2615227;31;20038;-55
2023/02/01 05:47:55;;;;;;;17.88;3.08;;;;;;;6.78;100.00;101683.28;2613645;36;20044;-55
2023/02/01 05:50:24;;;;;;;13.00;2.60;;;;;;;6.79;100.00;101679.69;2613540;31;20083;-56
2023/02/01 05:52:54;;;;;;;10.47;2.53;;;;;;;6.77;100.00;101678.88;2613466;36;20722;-58
2023/02/01 05:55:23;;;;;;;22.25;2.97;;;;;;;6.85;100.00;101681.97;2613947;36;20038;-55
2023/02/01 05:57:51;;;;;;;20.02;3.28;;;;;;;6.88;100.00;101679.13;2615222;36;20038;-52
2023/02/01 06:00:21;;;;;;;14.68;2.55;;;;;;;6.78;100.00;101691.31;2612599;36;20042;-52
2023/02/01 06:02:49;;;;;;;16.35;2.53;;;;;;;6.82;100.00;101677.66;2613852;36;20049;-54
2023/02/01 06:05:18;;;;;;;9.45;2.97;;;;;;;6.83;100.00;101673.16;2613164;36;20034;-53
2023/02/01 06:07:46;;;;;;;16.90;3.37;;;;;;;6.75;100.00;101678.97;2613305;36;20551;-50
2023/02/01 06:10:18;;;;;;;16.83;3.00;;;;;;;6.79;100.00;101674.31;2611807;36;20561;-54
2023/02/01 06:12:47;;;;;;;12.38;2.97;;;;;;;6.77;100.00;101689.59;2615070;36;20045;-56
2023/02/01 06:15:18;;;;;;;12.15;2.92;;;;;;;6.74;100.00;101690.63;2612820;36;20166;-55
2023/02/01 06:17:46;;;;;;;13.02;3.13;;;;;;;6.84;100.00;101698.97;2613122;36;20061;-53
2023/02/01 06:20:16;;;;;;;15.48;3.63;;;;;;;6.81;100.00;101683.09;2612539;36;20057;-53
2023/02/01 06:22:45;;;;;;;15.73;2.30;;;;;;;6.83;100.00;101689.22;2613516;36;20038;-55
2023/02/01 06:25:19;;;;;;;11.55;2.50;;;;;;;6.79;100.00;101685.03;2614680;54;20053;-54
2023/02/01 06:27:48;;;;;;;9.80;2.40;;;;;;;6.78;100.00;101708.22;2614588;36;20164;-58
2023/02/01 06:30:17;;;;;;;10.73;2.65;;;;;;;6.66;100.00;101696.44;2611789;36;20141;-58
2023/02/01 06:32:45;;;;;;;17.25;3.03;;;;;;;6.70;100.00;101705.16;2614866;36;20026;-58
2023/02/01 06:35:15;;;;;;;24.10;3.42;;;;;;;6.73;100.00;101701.41;2614369;36;20035;-54
2023/02/01 06:37:45;;;;;;;14.18;2.58;;;;;;;6.68;100.00;101687.47;2614242;36;20045;-53
2023/02/01 06:40:13;;;;;;;;;;;;;;;6.65;100.00;101696.53;2614629;36;20022;-55
2023/02/01 06:42:44;;;;;;;14.43;3.38;;;;;;;6.69;100.00;101686.53;2614442;36;19950;-55
2023/02/01 06:45:13;;;;;;;8.45;2.20;;;;;;;6.81;100.00;101701.84;2613928;36;20050;-55
2023/02/01 06:47:42;;;;;;;17.80;2.83;;;;;;;6.78;100.00;101702.03;2615215;36;20041;-55
2023/02/01 06:50:11;;;;;;;11.00;2.80;;;;;;;6.78;100.00;101699.34;2611968;36;20031;-55
2023/02/01 06:52:40;;;;;;;11.77;3.15;;;;;;;6.74;100.00;101700.47;2614971;36;20050;-55
2023/02/01 06:55:09;;;;;;;12.77;2.65;;;;;;;6.67;100.00;101700.00;2614298;36;20022;-52
2023/02/01 06:57:37;;;;;;;;;;;;;;;6.64;100.00;101698.34;2615927;36;20023;-55
2023/02/01 07:00:14;;;;;;;16.67;3.13;;;;;;;6.61;100.00;101700.31;2613647;36;20788;-54
2023/02/01 07:02:43;;;;;;;19.10;4.07;;;;;;;6.62;100.00;101702.91;2614726;36;20039;-50
2023/02/01 07:05:11;;;;;;;19.50;3.05;;;;;;;6.55;100.00;101704.25;2613830;36;20555;-52
2023/02/01 07:07:40;;;;;;;14.20;4.22;;;;;;;6.57;100.00;101701.47;2614601;36;20447;-54
2023/02/01 07:10:09;;;;;;;10.73;2.58;;;;;;;6.56;100.00;101718.47;2611988;36;20057;-55
2023/02/01 07:12:37;;;;;;;20.45;2.75;;;;;;;6.59;100.00;101704.91;2614270;36;20038;-53
2023/02/01 07:15:09;;;;;;;14.63;2.50;;;;;;;6.60;100.00;101710.19;2614377;36;20038;-49
2023/02/01 07:17:38;;;;;;;20.08;3.03;;;;;;;6.65;100.00;101716.13;2614842;36;20038;-49
2023/02/01 07:20:07;;;;;;;16.55;2.70;;;;;;;6.64;100.00;101710.84;2614347;36;20030;-55
2023/02/01 07:22:36;;;;;;;14.10;2.65;;;;;;;6.60;100.00;101714.69;2615169;36;20030;-56
2023/02/01 07:25:05;;;;;;;14.95;3.25;;;;;;;6.52;100.00;101711.56;2613772;36;20046;-52
2023/02/01 07:27:36;;;;;;;15.30;3.30;;;;;;;6.62;100.00;101715.44;2614826;36;20035;-53
2023/02/01 07:30:05;;;;;;;8.60;2.08;;;;;;;6.66;100.00;101714.31;2611871;36;20043;-55
2023/02/01 07:32:36;;;;;;;11.73;3.15;;;;;;;6.64;100.00;101709.06;2614631;31;20038;-54
2023/02/01 07:35:04;;;;;;;14.05;3.13;;;;;;;6.70;100.00;101712.31;2615243;36;20053;-53
2023/02/01 07:37:32;;;;;;;11.90;2.75;;;;;;;6.62;100.00;101713.59;2616395;36;20058;-57
2023/02/01 07:40:01;;;;;;;13.00;3.58;;;;;;;6.64;100.00;101711.72;2616462;36;20033;-55
2023/02/01 07:42:29;;;;;;;10.27;2.85;;;;;;;6.66;100.00;101712.50;2616188;36;20045;-55
2023/02/01 07:44:57;;;;;;;16.70;2.35;;;;;;;6.61;100.00;101713.69;2616670;36;20026;-52
2023/02/01 07:47:26;;;;;;;16.10;2.70;;;;;;;6.68;100.00;101708.88;2615696;36;20042;-53
2023/02/01 07:49:57;;;;;;;13.63;2.50;;;;;;;6.69;100.00;101713.28;2614123;36;20027;-53
2023/02/01 07:52:25;;;;;;;17.02;2.67;;;;;;;6.74;100.00;101727.22;2615795;36;20439;-54
2023/02/01 07:54:53;;;;;;;15.90;2.75;;;;;;;6.65;100.00;101713.47;2616259;36;20039;-55
2023/02/01 07:57:22;;;;;;;16.88;2.80;;;;;;;6.63;100.00;101704.66;2614090;36;20042;-55
2023/02/01 08:02:31;;;;;;;17.10;2.65;;;;;;;6.72;100.00;101729.16;2616621;36;20065;-57
2023/02/01 08:05:02;;;;;;;17.00;2.45;;;;;;;6.63;100.00;101720.69;2615246;36;20034;-56
2023/02/01 08:07:30;;;;;;;11.27;3.10;;;;;;;6.61;100.00;101727.06;2615076;31;20597;-57
2023/02/01 08:09:59;;;;;;;14.50;2.95;;;;;;;6.54;100.00;101721.22;2614347;36;20435;-57
2023/02/01 08:12:28;;;;;;;17.42;2.53;;;;;;;6.63;100.00;101723.38;2615553;36;20034;-54
2023/02/01 08:14:57;;;;;;;12.70;2.88;;;;;;;6.71;100.00;101724.75;2614706;31;20033;-55
2023/02/01 08:17:26;;;;;;;8.77;2.47;;;;;;;6.78;100.00;101718.06;2614345;36;20061;-56
2023/02/01 08:19:54;;;;;;;18.77;2.70;;;;;;;6.87;100.00;101733.59;2613910;36;20042;-57
2023/02/01 08:22:25;;;;;;;14.30;3.20;;;;;;;6.90;100.00;101730.72;2614323;36;20041;-56
2023/02/01 08:25:01;;;;;;;17.05;2.75;;;;;;;6.90;100.00;101724.50;2614942;36;20057;-52
2023/02/01 08:27:29;;;;;;;15.82;2.92;;;;;;;6.86;100.00;101726.53;2614796;36;20023;-55
2023/02/01 08:29:58;;;;;;;17.13;3.08;;;;;;;6.94;100.00;101734.09;2614673;36;20041;-56
2023/02/01 08:32:26;;;;;;;12.70;2.92;;;;;;;7.04;100.00;101721.00;2615141;36;20027;-56
2023/02/01 08:34:55;;;;;;;17.27;3.35;;;;;;;6.93;100.00;101711.81;2615678;36;20053;-55
2023/02/01 08:37:25;;;;;;;21.58;3.30;;;;;;;7.03;100.00;101712.13;2616535;36;20029;-55
2023/02/01 08:39:54;;;;;;;13.48;2.13;;;;;;;6.98;100.00;101714.22;2616145;36;20038;-55
2023/02/01 08:45:03;;;;;;;16.85;3.25;;;;;;;7.03;100.00;101713.94;2615986;36;20041;-57
2023/02/01 08:47:32;;;;;;;15.43;2.50;;;;;;;7.04;100.00;101702.25;2616381;36;20046;-56
2023/02/01 08:50:01;;;;;;;17.23;2.83;;;;;;;7.07;100.00;101705.63;2615642;36;20037;-55
2023/02/01 08:52:31;;;;;;;13.90;2.75;;;;;;;7.09;100.00;101708.22;2615867;36;20061;-56
2023/02/01 08:55:00;;;;;;;17.30;2.97;;;;;;;7.26;100.00;101705.38;2616926;31;20041;-53
2023/02/01 08:57:28;;;;;;;15.43;2.13;;;;;;;7.42;100.00;101691.03;2616957;36;20031;-56
2023/02/01 08:59:56;;;;;;;15.43;2.77;;;;;;;7.41;100.00;101695.53;2616118;36;20117;-56
2023/02/01 09:02:25;;;;;;;8.30;2.95;;;;;;;7.42;100.00;101701.75;2615987;36;20030;-54
2023/02/01 09:04:53;;;;;;;14.65;3.03;;;;;;;7.40;100.00;101699.16;2616614;36;20436;-54
2023/02/01 09:07:22;;;;;;;15.23;2.35;;;;;;;7.40;100.00;101698.31;2615573;36;20038;-54
2023/02/01 09:09:54;;;;;;;8.00;2.27;;;;;;;7.42;100.00;101707.09;2615071;31;20042;-52
2023/02/01 09:12:22;;;;;;;16.00;2.42;;;;;;;7.42;100.00;101701.75;2616022;36;20023;-55
2023/02/01 09:14:53;;;;;;;15.73;2.73;;;;;;;7.50;100.00;101708.34;2615995;36;20038;-56
2023/02/01 09:17:21;;;;;;;13.23;2.70;;;;;;;7.56;100.00;101698.22;2615231;36;20027;-55
2023/02/01 09:19:50;;;;;;;17.70;3.33;;;;;;;7.62;100.00;101704.06;2615922;36;20038;-56
2023/02/01 09:22:18;;;;;;;16.10;3.17;;;;;;;7.61;100.00;101699.66;2615856;36;20069;-54
2023/02/01 09:24:46;;;;;;;14.73;2.67;;;;;;;7.57;100.00;101679.38;2616520;36;20022;-54
2023/02/01 09:27:17;;;;;;;11.93;2.43;;;;;;;7.51;100.00;101690.50;2616319;36;20150;-54
2023/02/01 09:29:49;;;;;;;10.80;2.33;;;;;;;7.43;100.00;101690.09;2616431;36;20038;-54
2023/02/01 09:32:17;;;;;;;17.27;3.28;;;;;;;7.31;100.00;101705.09;2615755;31;20173;-50
2023/02/01 09:34:46;;;;;;;15.45;2.85;;;;;;;7.33;100.00;101701.38;2616534;36;20045;-56
2023/02/01 09:37:14;;;;;;;15.25;2.97;;;;;;;7.37;100.00;101704.72;2616206;36;20439;-55
2023/02/01 09:39:43;;;;;;;17.25;3.38;;;;;;;7.40;100.00;101698.31;2616160;36;20039;-56
2023/02/01 09:42:28;;;;;;;13.50;2.60;;;;;;;7.28;100.00;101690.06;2615636;36;20133;-54
2023/02/01 09:45:21;;;;;;;14.73;2.50;;;;;;;7.35;100.00;101685.22;2616281;36;20038;-52
2023/02/01 09:47:54;;;;;;;8.25;2.78;;;;;;;7.43;100.00;101676.69;2616443;36;20061;-52
2023/02/01 09:50:30;;;;;;;10.15;2.75;;;;;;;7.35;100.00;101679.84;2614415;36;20034;-54
2023/02/01 09:53:04;;;;;;;12.20;2.85;;;;;;;7.29;100.00;101681.09;2616495;36;20046;-55
2023/02/01 09:55:38;;;;;;;13.13;2.55;;;;;;;7.33;100.00;101687.09;2616265;36;20031;-59
2023/02/01 09:58:15;;;;;;;11.48;3.10;;;;;;;7.18;100.00;101688.91;2615170;36;20030;-54
2023/02/01 10:00:54;;;;;;;11.32;2.70;;;;;;;7.18;100.00;101681.75;2616058;36;20446;-55
2023/02/01 10:03:23;;;;;;;15.02;2.92;;;;;;;6.92;100.00;101688.69;2616616;36;20412;-51
2023/02/01 10:06:08;;;;;;;14.13;2.60;;;;;;;6.88;100.00;101676.44;2615936;36;20038;-56
2023/02/01 10:08:55;;;;;;;14.70;2.63;;;;;;;6.86;100.00;101673.00;2615710;36;20431;-53
2023/02/01 10:11:47;;;;;;;15.23;2.90;;;;;;;6.85;100.00;101684.66;2614808;31;20045;-54
2023/02/01 10:14:35;;;;;;;11.73;3.38;;;;;;;6.75;100.00;101670.09;2613696;36;20034;-52
2023/02/01 10:17:12;;;;;;;18.00;2.70;;;;;;;6.77;100.00;101665.50;2613352;36;20034;-56
2023/02/01 10:19:50;;;;;;;16.27;2.95;;;;;;;6.82;100.00;101677.66;2613826;36;20042;-52
2023/02/01 10:22:30;;;;;;;16.65;4.15;;;;;;;6.89;100.00;101686.19;2614129;31;20423;-50
2023/02/01 10:25:07;;;;;;;10.50;2.47;;;;;;;6.72;100.00;101684.50;2616314;31;20030;-49
2023/02/01 10:27:37;;;;;;;15.18;2.30;;;;;;;6.70;100.00;101686.44;2615162;36;20039;-54
2023/02/01 10:30:22;;;;;;;11.85;2.78;;;;;;;6.66;100.00;101679.53;2616424;36;20421;-51
2023/02/01 10:32:52;;;;;;;14.23;2.80;;;;;;;6.68;100.00;101687.47;2615774;31;20065;-50
2023/02/01 10:35:25;;;;;;;16.08;3.17;;;;;;;6.70;100.00;101683.75;2615072;36;20042;-51
2023/02/01 10:37:54;;;;;;;11.77;2.70;;;;;;;6.62;100.00;101684.19;2613212;36;20158;-49
2023/02/01 10:40:26;;;;;;;15.05;2.78;;;;;;;6.78;100.00;101683.28;2614148;36;20022;-54
2023/02/01 10:42:56;;;;;;;12.63;3.75;;;;;;;6.71;100.00;101687.28;2616067;36;20042;-52
2023/02/01 10:45:29;;;;;;;17.23;3.00;;;;;;;6.70;100.00;101680.19;2615850;36;20042;-53
2023/02/01 10:48:01;;;;;;;13.38;2.75;;;;;;;6.74;100.00;101679.06;2616323;36;20042;-50
2023/02/01 10:50:39;;;;;;;13.52;3.83;;;;;;;6.64;100.00;101676.94;2616383;36;20064;-53
2023/02/01 10:53:13;;;;;;;9.63;2.40;;;;;;;6.88;100.00;101681.78;2617273;36;20030;-51
2023/02/01 10:55:49;;;;;;;12.15;3.03;;;;;;;6.89;100.00;101663.91;2617163;36;20447;-57
2023/02/01 10:58:19;;;;;;;17.92;3.45;;;;;;;6.93;100.00;101677.00;2616778;36;20450;-52
2023/02/01 11:00:54;;;;;;;13.23;3.30;;;;;;;7.00;100.00;101669.50;2616661;36;20022;-56
2023/02/01 11:03:36;;;;;;;14.10;3.22;;;;;;;7.03;100.00;101652.38;2616475;36;20047;-50
2023/02/01 11:06:11;;;;;;;11.40;3.00;;;;;;;7.04;100.00;101662.13;2616867;36;20447;-55
2023/02/01 11:08:46;;;;;;;14.38;3.20;;;;;;;7.09;100.00;101655.53;2616565;36;20026;-51
2023/02/01 11:11:14;;;;;;;12.10;3.00;;;;;;;7.18;100.00;101656.78;2616736;36;20166;-52
2023/02/01 11:13:44;;;;;;;15.23;4.13;;;;;;;7.12;100.00;101644.63;2616524;36;20743;-57
2023/02/01 11:16:17;;;;;;;18.30;2.83;;;;;;;7.15;100.00;101651.63;2617199;31;20041;-53
2023/02/01 11:18:46;;;;;;;15.05;2.78;;;;;;;7.16;100.00;101639.97;2616211;36;20061;-57
2023/02/01 11:21:17;;;;;;;16.30;2.88;;;;;;;7.15;100.00;101656.97;2616706;36;20027;-55
2023/02/01 11:23:47;;;;;;;18.27;2.83;;;;;;;7.10;100.00;101651.91;2617127;36;20442;-56
2023/02/01 11:26:23;;;;;;;20.10;2.97;;;;;;;7.21;100.00;101643.22;2616165;36;20037;-51
2023/02/01 11:28:57;;;;;;;19.63;3.13;;;;;;;7.35;100.00;101629.81;2616364;36;20134;-56
2023/02/01 11:31:29;;;;;;;9.75;2.33;;;;;;;7.33;100.00;101645.13;2617375;31;20034;-54
2023/02/01 11:34:10;;;;;;;12.90;2.55;;;;;;;7.40;100.00;101642.06;2616470;36;20053;-52
2023/02/01 11:36:39;;;;;;;9.93;2.40;;;;;;;7.45;100.00;101631.91;2617229;36;20037;-56
2023/02/01 11:39:12;;;;;;;;;;;;;;;7.53;100.00;101634.97;2616963;36;20474;-52
2023/02/01 11:41:44;;;;;;;16.10;2.65;;;;;;;7.56;100.00;101642.81;2617006;36;20343;-53
2023/02/01 11:44:25;;;;;;;12.77;2.92;;;;;;;7.40;100.00;101631.34;2616121;36;20034;-49
2023/02/01 11:46:56;;;;;;;16.40;2.53;;;;;;;7.47;100.00;101649.63;2616651;36;20039;-54
2023/02/01 11:49:27;;;;;;;15.60;2.92;;;;;;;7.56;100.00;101642.81;2617058;36;20470;-51
2023/02/01 11:52:13;;;;;;;13.68;3.03;;;;;;;7.45;100.00;101639.94;2616755;36;20041;-52
2023/02/01 11:54:57;;;;;;;17.08;2.47;;;;;;;7.60;100.00;101633.63;2616698;36;20591;-52
2023/02/01 11:57:41;;;;;;;19.88;3.05;;;;;;;7.54;100.00;101626.00;2616613;36;20033;-50
2023/02/01 12:00:38;;;;;;;14.73;2.58;;;;;;;7.51;100.00;101640.44;2616056;36;20034;-54
2023/02/01 12:04:03;;;;;;;17.52;3.08;;;;;;;7.63;100.00;101635.28;2616559;36;20042;-52
2023/02/01 12:06:40;;;;;;;18.00;3.53;;;;;;;7.63;100.00;101622.72;2615145;36;20034;-54
2023/02/01 12:09:33;;;;;;;18.55;2.88;;;;;;;7.68;100.00;101636.66;2616016;36;20030;-50
2023/02/01 12:12:10;;;;;;;34.25;3.22;;;;;;;7.61;100.00;101627.34;2616075;31;20134;-52